Time;durP1;ratioP1;P1;durP2;ratioP2;P2;SDS_P1;SDS_P2;PMS_P1;PMS_P2;Temp;Humidity;BMP_temperature;BMP_pressure;BME280_temperature;BME280_humidity;BME280_pressure;Samples;Min_cycle;Max_cycle;Signal;HPM_P1;HPM_P2
2022/12/20 00:00:47;;;;;;;3.95;2.65;;;-1.60;99.90;;;;;;5019696;28;20037;-75
2022/12/20 00:03:13;;;;;;;1.65;1.65;;;-1.50;99.90;;;;;;5029295;28;20121;-74
2022/12/20 00:05:39;;;;;;;3.85;3.65;;;-1.50;99.90;;;;;;5031068;28;20026;-74
2022/12/20 00:08:06;;;;;;;3.05;2.95;;;-1.50;99.90;;;;;;5030849;28;20034;-74
2022/12/20 00:10:39;;;;;;;2.03;1.92;;;-1.40;99.90;;;;;;5001357;28;20514;-74
2022/12/20 00:13:05;;;;;;;1.40;1.40;;;-1.40;99.90;;;;;;5011487;28;20491;-74
2022/12/20 00:15:31;;;;;;;3.55;3.45;;;-1.30;99.90;;;;;;5028111;28;20025;-73
2022/12/20 00:17:57;;;;;;;1.25;1.25;;;-1.30;99.90;;;;;;5027863;28;20460;-74
2022/12/20 00:20:24;;;;;;;1.17;1.17;;;-1.30;99.90;;;;;;4997409;28;20516;-73
2022/12/20 00:22:49;;;;;;;1.20;1.20;;;-1.20;99.90;;;;;;5027501;28;20488;-74
2022/12/20 00:25:15;;;;;;;1.10;1.10;;;-1.10;99.90;;;;;;5014827;28;20018;-74
2022/12/20 00:27:41;;;;;;;1.65;1.65;;;-1.10;99.90;;;;;;5021750;28;20023;-73
2022/12/20 00:30:07;;;;;;;1.65;1.65;;;-1.00;99.90;;;;;;5003565;28;20026;-73
2022/12/20 00:32:33;;;;;;;1.30;1.30;;;-1.00;99.90;;;;;;5027190;28;20499;-73
2022/12/20 00:34:58;;;;;;;3.92;3.75;;;-0.90;99.90;;;;;;5010031;28;20088;-74
2022/12/20 00:37:24;;;;;;;1.17;1.17;;;-0.90;99.90;;;;;;5014423;28;20072;-74
2022/12/20 00:39:50;;;;;;;1.40;1.40;;;-0.90;99.90;;;;;;5014504;28;20030;-73
2022/12/20 00:42:15;;;;;;;1.70;1.70;;;-0.90;99.90;;;;;;5014458;28;20423;-75
2022/12/20 00:44:41;;;;;;;2.00;2.00;;;-0.90;99.90;;;;;;5014333;28;20022;-74
2022/12/20 00:47:06;;;;;;;1.20;1.20;;;-0.90;99.90;;;;;;4996570;28;20026;-74
2022/12/20 00:49:32;;;;;;;1.40;1.40;;;-0.90;99.90;;;;;;5014370;28;20040;-75
2022/12/20 00:51:57;;;;;;;1.40;1.40;;;-0.90;99.90;;;;;;5014401;28;20053;-74
2022/12/20 00:54:23;;;;;;;1.83;1.83;;;-0.90;99.90;;;;;;5014174;28;20033;-75
2022/12/20 00:56:48;;;;;;;3.30;3.20;;;-0.80;99.90;;;;;;5013898;28;20033;-75
2022/12/20 00:59:14;;;;;;;6.07;2.22;;;-0.80;99.90;;;;;;5009781;28;20021;-74
2022/12/20 01:01:40;;;;;;;2.08;1.98;;;-0.80;99.90;;;;;;5033889;28;20060;-74
2022/12/20 01:04:05;;;;;;;1.67;1.67;;;-0.80;99.90;;;;;;5033823;28;20057;-74
2022/12/20 01:06:31;;;;;;;7.90;4.55;;;-0.80;99.90;;;;;;5027164;28;20084;-74
2022/12/20 01:08:57;;;;;;;6.35;4.78;;;-0.80;99.90;;;;;;4996181;28;20030;-74
2022/12/20 01:11:25;;;;;;;1.35;1.35;;;-0.80;99.90;;;;;;5013797;28;20029;-74
2022/12/20 01:13:54;;;;;;;1.85;1.85;;;-0.90;99.90;;;;;;5013789;28;20104;-74
2022/12/20 01:16:30;;;;;;;4.72;4.53;;;-0.80;99.90;;;;;;5013881;28;20506;-74
2022/12/20 01:18:55;;;;;;;1.80;1.80;;;-0.90;99.90;;;;;;4996034;28;20071;-73
2022/12/20 01:21:23;;;;;;;1.20;1.20;;;-0.90;99.90;;;;;;5013622;28;20105;-74
2022/12/20 01:23:49;;;;;;;1.30;1.30;;;-0.80;99.90;;;;;;5013578;28;20022;-74
2022/12/20 01:26:18;;;;;;;1.40;1.40;;;-0.80;99.90;;;;;;4995250;28;20033;-75
2022/12/20 01:28:45;;;;;;;3.78;3.53;;;-0.80;99.90;;;;;;5026520;28;20104;-75
2022/12/20 01:31:14;;;;;;;1.80;1.80;;;-0.80;99.90;;;;;;5021676;28;20029;-75
2022/12/20 01:33:40;;;;;;;2.05;1.95;;;-0.80;99.90;;;;;;5002204;28;20081;-75
2022/12/20 01:36:12;;;;;;;6.45;5.80;;;-0.80;99.90;;;;;;5024845;28;20026;-75
2022/12/20 01:38:38;;;;;;;1.30;1.30;;;-0.70;99.90;;;;;;5026451;28;20041;-75
2022/12/20 01:41:04;;;;;;;1.65;1.65;;;-0.70;99.90;;;;;;5022772;28;20079;-75
2022/12/20 01:43:50;;;;;;;1.77;1.77;;;-0.70;99.90;;;;;;4999350;28;20530;-75
2022/12/20 01:46:18;;;;;;;1.55;1.55;;;-0.70;99.90;;;;;;5007791;28;20022;-75
2022/12/20 01:48:52;;;;;;;1.70;1.70;;;-0.70;99.90;;;;;;5019445;28;20029;-75
2022/12/20 01:51:19;;;;;;;1.90;1.90;;;-0.70;99.90;;;;;;5019968;28;20050;-75
2022/12/20 01:53:47;;;;;;;1.70;1.70;;;-0.60;99.90;;;;;;5026315;28;20088;-75
2022/12/20 01:56:13;;;;;;;1.58;1.58;;;-0.60;99.90;;;;;;5026298;28;20088;-74
2022/12/20 01:58:40;;;;;;;1.63;1.63;;;-0.60;99.90;;;;;;5019765;28;20022;-75
2022/12/20 02:01:06;;;;;;;1.48;1.48;;;-0.60;99.90;;;;;;5001720;28;20641;-75
2022/12/20 02:03:32;;;;;;;1.85;1.85;;;-0.50;99.90;;;;;;5025947;28;20026;-75
2022/12/20 02:06:19;;;;;;;3.42;3.25;;;-0.50;99.90;;;;;;5026258;28;20021;-75
2022/12/20 02:08:48;;;;;;;1.70;1.70;;;-0.40;99.90;;;;;;5012212;28;20373;-75
2022/12/20 02:11:19;;;;;;;1.63;1.63;;;-0.40;99.90;;;;;;5010387;28;20487;-75
2022/12/20 02:13:47;;;;;;;1.60;1.60;;;-0.40;99.90;;;;;;5024676;28;20047;-75
2022/12/20 02:16:20;;;;;;;3.15;3.05;;;-0.40;99.90;;;;;;5019353;28;20104;-75
2022/12/20 02:18:57;;;;;;;1.38;1.38;;;-0.40;99.90;;;;;;5019391;28;20018;-75
2022/12/20 02:21:40;;;;;;;1.50;1.50;;;-0.40;99.90;;;;;;4990714;28;20501;-75
2022/12/20 02:24:43;;;;;;;1.40;1.40;;;-0.30;99.90;;;;;;5019176;28;20029;-75
2022/12/20 02:27:36;;;;;;;1.50;1.50;;;-0.30;99.90;;;;;;5018889;28;20088;-75
2022/12/20 02:30:07;;;;;;;1.77;1.77;;;-0.30;99.90;;;;;;5002765;28;20030;-75
2022/12/20 02:33:06;;;;;;;1.85;1.85;;;-0.10;99.90;;;;;;5025627;28;20026;-75
2022/12/20 02:35:34;;;;;;;1.80;1.80;;;0.00;99.90;;;;;;5029564;28;20491;-75
2022/12/20 02:38:04;;;;;;;1.60;1.60;;;0.10;99.90;;;;;;5020951;28;20037;-75
2022/12/20 02:40:48;;;;;;;1.50;1.50;;;0.20;99.90;;;;;;5012386;28;20036;-75
2022/12/20 02:46:01;;;;;;;1.20;1.20;;;0.30;99.90;;;;;;5022525;28;20399;-74
2022/12/20 02:48:30;;;;;;;1.52;1.52;;;0.20;99.90;;;;;;5018558;28;20028;-75
2022/12/20 02:50:57;;;;;;;1.92;1.92;;;0.10;99.90;;;;;;5021544;28;20030;-75
2022/12/20 02:53:23;;;;;;;2.47;2.38;;;0.10;99.90;;;;;;5016153;28;20037;-75
2022/12/20 02:56:04;;;;;;;1.52;1.52;;;0.10;99.90;;;;;;5021065;28;20108;-75
2022/12/20 02:58:46;;;;;;;3.03;2.92;;;0.00;99.90;;;;;;5007668;28;20022;-75
2022/12/20 03:01:20;;;;;;;3.90;3.72;;;0.00;99.90;;;;;;5012081;28;20419;-74
2022/12/20 03:03:46;;;;;;;2.50;2.40;;;0.10;99.90;;;;;;5012040;28;20030;-74
2022/12/20 03:06:12;;;;;;;2.03;2.03;;;0.00;99.90;;;;;;5014654;28;20025;-75
2022/12/20 03:08:37;;;;;;;1.73;1.73;;;0.00;99.90;;;;;;5031498;28;20014;-74
2022/12/20 03:11:03;;;;;;;3.45;3.20;;;0.00;99.90;;;;;;5015312;28;20490;-74
2022/12/20 03:13:28;;;;;;;1.52;1.52;;;0.00;99.90;;;;;;5021573;28;20029;-74
2022/12/20 03:15:54;;;;;;;1.95;1.92;;;0.00;99.90;;;;;;5029678;28;20034;-74
2022/12/20 03:18:19;;;;;;;1.50;1.50;;;0.00;99.90;;;;;;5021831;28;20048;-75
2022/12/20 03:20:45;;;;;;;2.00;2.00;;;0.00;99.90;;;;;;5027693;28;20107;-73
2022/12/20 03:23:10;;;;;;;3.00;1.98;;;0.00;99.90;;;;;;5031499;28;20025;-73
2022/12/20 03:25:36;;;;;;;2.10;2.08;;;0.00;99.90;;;;;;5013641;28;20390;-73
2022/12/20 03:28:02;;;;;;;3.17;3.00;;;0.00;99.90;;;;;;5013596;28;20021;-73
2022/12/20 03:30:27;;;;;;;1.85;1.80;;;0.10;99.90;;;;;;5015713;28;20471;-72
2022/12/20 03:32:53;;;;;;;1.55;1.55;;;0.10;99.90;;;;;;4994070;28;20033;-73
2022/12/20 03:35:18;;;;;;;2.92;2.72;;;0.10;99.90;;;;;;5011630;28;20041;-73
2022/12/20 03:37:44;;;;;;;1.52;1.52;;;0.10;99.90;;;;;;4993889;28;20186;-73
2022/12/20 03:40:10;;;;;;;1.65;1.65;;;0.20;99.90;;;;;;5026910;28;20037;-73
2022/12/20 03:42:36;;;;;;;3.17;2.28;;;0.10;99.90;;;;;;5022679;28;20077;-74
2022/12/20 03:45:02;;;;;;;1.77;1.77;;;0.20;99.90;;;;;;5027037;28;20026;-74
2022/12/20 03:47:27;;;;;;;1.75;1.75;;;0.20;99.90;;;;;;5022343;28;20022;-74
2022/12/20 03:49:53;;;;;;;1.30;1.30;;;0.20;99.90;;;;;;5014218;28;20407;-74
2022/12/20 03:52:18;;;;;;;1.63;1.63;;;0.20;99.90;;;;;;5015494;28;20037;-74
2022/12/20 03:54:44;;;;;;;3.55;3.35;;;0.30;99.90;;;;;;5028548;28;20487;-73
2022/12/20 03:57:10;;;;;;;1.75;1.75;;;0.30;99.90;;;;;;5023644;28;20395;-73
2022/12/20 03:59:35;;;;;;;3.50;3.30;;;0.40;99.90;;;;;;5034998;28;20052;-73
2022/12/20 04:02:02;;;;;;;1.83;1.83;;;0.50;99.90;;;;;;5008809;28;20026;-73
2022/12/20 04:04:28;;;;;;;1.75;1.75;;;0.50;99.90;;;;;;5028448;28;20034;-73
2022/12/20 04:06:53;;;;;;;2.38;2.28;;;0.50;99.90;;;;;;5023646;28;20032;-73
2022/12/20 04:09:19;;;;;;;2.28;2.17;;;0.70;99.90;;;;;;5019813;28;20096;-74
2022/12/20 04:11:44;;;;;;;1.70;1.70;;;0.60;99.90;;;;;;5015059;28;20122;-73
2022/12/20 04:14:10;;;;;;;1.90;1.90;;;0.60;99.90;;;;;;5015010;28;20108;-74
2022/12/20 04:16:35;;;;;;;1.60;1.60;;;0.50;99.90;;;;;;5021594;28;20029;-74
2022/12/20 04:19:01;;;;;;;1.70;1.70;;;0.60;99.90;;;;;;5021223;28;20026;-75
2022/12/20 04:21:30;;;;;;;2.47;2.42;;;0.50;99.90;;;;;;5025803;28;20034;-74
2022/12/20 04:23:57;;;;;;;1.73;1.73;;;0.50;99.90;;;;;;5028080;28;20076;-73
2022/12/20 04:26:24;;;;;;;2.20;2.13;;;0.60;99.90;;;;;;5014801;28;20022;-73
2022/12/20 04:28:49;;;;;;;1.67;1.67;;;0.50;99.90;;;;;;5030375;28;20530;-73
2022/12/20 04:31:15;;;;;;;3.15;3.00;;;0.40;99.90;;;;;;5025170;28;20030;-73
2022/12/20 04:33:40;;;;;;;1.80;1.80;;;0.40;99.90;;;;;;5027871;28;20483;-74
2022/12/20 04:36:06;;;;;;;1.90;1.90;;;0.30;99.90;;;;;;5015006;28;20113;-73
2022/12/20 04:38:32;;;;;;;1.70;1.70;;;0.40;99.90;;;;;;5029856;28;20033;-74
2022/12/20 04:40:58;;;;;;;1.45;1.45;;;0.40;99.90;;;;;;5034261;28;20036;-74
2022/12/20 04:43:24;;;;;;;6.10;5.68;;;0.40;99.90;;;;;;5020717;28;20029;-74
2022/12/20 04:45:55;;;;;;;3.58;3.38;;;0.40;99.90;;;;;;5025112;28;20109;-74
2022/12/20 04:48:21;;;;;;;2.30;2.20;;;0.40;99.90;;;;;;5017367;28;20088;-73
2022/12/20 04:50:48;;;;;;;2.17;2.13;;;0.40;99.90;;;;;;5006909;28;20025;-73
2022/12/20 04:55:59;;;;;;;2.08;2.08;;;0.40;99.90;;;;;;5014300;28;20037;-74
2022/12/20 04:58:24;;;;;;;2.05;2.05;;;0.40;99.90;;;;;;5014031;28;20376;-74
2022/12/20 05:00:53;;;;;;;2.35;2.25;;;0.50;99.90;;;;;;5024784;28;20033;-74
2022/12/20 05:03:20;;;;;;;2.10;2.10;;;0.60;99.90;;;;;;5014950;28;20041;-73
2022/12/20 05:05:45;;;;;;;4.95;4.75;;;0.60;99.90;;;;;;5026356;28;20064;-74
2022/12/20 05:08:11;;;;;;;2.33;2.22;;;0.50;99.90;;;;;;5028015;28;20108;-73
2022/12/20 05:10:37;;;;;;;2.17;2.17;;;0.50;99.90;;;;;;5013952;28;20495;-73
2022/12/20 05:13:03;;;;;;;2.90;2.80;;;0.50;99.90;;;;;;5027308;28;20399;-74
2022/12/20 05:15:29;;;;;;;2.67;2.58;;;0.50;99.90;;;;;;4996231;28;20030;-73
2022/12/20 05:17:58;;;;;;;2.38;2.28;;;0.50;99.90;;;;;;5025411;28;20534;-73
2022/12/20 05:20:30;;;;;;;2.40;2.30;;;0.50;99.90;;;;;;5003070;28;20055;-73
2022/12/20 05:28:32;;;;;;;2.33;2.22;;;0.60;99.90;;;;;;5033651;28;20048;-74
2022/12/20 05:30:57;;;;;;;4.95;4.35;;;0.70;99.90;;;;;;5013807;28;20018;-74
2022/12/20 05:33:23;;;;;;;3.10;3.00;;;0.70;99.90;;;;;;5026086;28;20032;-74
2022/12/20 05:35:48;;;;;;;2.30;2.20;;;0.70;99.90;;;;;;5002230;28;20103;-73
2022/12/20 05:38:15;;;;;;;3.20;3.10;;;0.70;99.90;;;;;;5033073;28;20044;-73
2022/12/20 05:40:40;;;;;;;3.20;3.08;;;0.70;99.90;;;;;;5013947;28;20026;-74
2022/12/20 05:43:07;;;;;;;2.63;2.53;;;0.70;99.90;;;;;;5025930;28;20034;-74
2022/12/20 05:45:33;;;;;;;2.78;2.67;;;0.70;99.90;;;;;;5013467;28;20056;-72
2022/12/20 05:47:59;;;;;;;2.40;2.30;;;0.60;99.90;;;;;;5013107;28;20068;-73
2022/12/20 05:50:24;;;;;;;2.13;2.13;;;0.60;99.90;;;;;;5013079;28;20030;-73
2022/12/20 05:52:50;;;;;;;2.60;2.50;;;0.50;99.90;;;;;;5013186;28;20033;-74
2022/12/20 05:55:16;;;;;;;2.10;2.10;;;0.60;99.90;;;;;;5018888;28;20061;-75
2022/12/20 05:57:41;;;;;;;3.25;3.15;;;0.60;99.90;;;;;;5020505;28;20036;-73
2022/12/20 06:00:08;;;;;;;3.80;3.65;;;0.60;99.90;;;;;;5008664;28;20034;-73
2022/12/20 06:02:34;;;;;;;4.32;4.13;;;0.60;99.90;;;;;;5012951;28;20030;-73
2022/12/20 06:04:59;;;;;;;6.10;5.13;;;0.60;99.90;;;;;;5001126;28;20095;-73
2022/12/20 06:07:27;;;;;;;3.85;3.67;;;0.60;99.90;;;;;;5020126;28;20022;-73
2022/12/20 06:09:54;;;;;;;2.50;2.40;;;0.50;99.90;;;;;;5013091;28;20029;-74
2022/12/20 06:12:19;;;;;;;2.60;2.50;;;0.50;99.90;;;;;;4994823;28;20030;-73
2022/12/20 06:14:45;;;;;;;2.85;2.75;;;0.50;99.90;;;;;;5014752;28;20025;-74
2022/12/20 06:17:10;;;;;;;3.30;3.20;;;0.50;99.90;;;;;;5001876;28;20033;-74
2022/12/20 06:19:36;;;;;;;2.08;2.05;;;0.50;99.90;;;;;;5026761;28;20026;-74
2022/12/20 06:22:02;;;;;;;3.13;3.03;;;0.50;99.90;;;;;;5025208;28;20036;-73
2022/12/20 06:24:28;;;;;;;3.03;2.92;;;0.50;99.90;;;;;;5001421;28;20021;-74
2022/12/20 06:26:53;;;;;;;3.30;3.20;;;0.50;99.90;;;;;;5002045;28;20087;-74
2022/12/20 06:29:19;;;;;;;2.78;2.67;;;0.50;99.90;;;;;;5008114;28;20120;-74
2022/12/20 06:31:46;;;;;;;4.25;3.95;;;0.50;99.90;;;;;;5025193;28;20483;-74
2022/12/20 06:34:12;;;;;;;2.60;2.50;;;0.50;99.90;;;;;;5018732;28;20065;-74
2022/12/20 06:36:37;;;;;;;2.72;2.63;;;0.50;99.90;;;;;;5001823;28;20057;-74
2022/12/20 06:39:03;;;;;;;2.90;2.80;;;0.50;99.90;;;;;;5025408;28;20038;-74
2022/12/20 06:41:28;;;;;;;2.75;2.65;;;0.60;99.90;;;;;;5007279;28;20025;-74
2022/12/20 06:43:54;;;;;;;3.35;3.25;;;0.60;99.90;;;;;;5018909;28;20041;-74
2022/12/20 06:46:19;;;;;;;3.60;3.50;;;0.60;99.90;;;;;;5019179;28;20033;-74
2022/12/20 06:48:45;;;;;;;2.83;2.72;;;0.60;99.90;;;;;;5025425;28;20068;-76
2022/12/20 06:51:10;;;;;;;2.67;2.58;;;0.50;99.90;;;;;;4994679;28;20113;-73
2022/12/20 06:53:36;;;;;;;2.90;2.80;;;0.60;99.90;;;;;;5025224;28;20542;-75
2022/12/20 06:56:02;;;;;;;4.30;4.20;;;0.60;99.90;;;;;;5015016;28;20030;-76
2022/12/20 06:58:27;;;;;;;8.23;7.68;;;0.60;99.90;;;;;;5019191;28;20018;-75
2022/12/20 07:00:53;;;;;;;3.75;3.45;;;0.60;99.90;;;;;;5019621;28;20049;-76
2022/12/20 07:03:19;;;;;;;3.28;3.17;;;0.60;99.90;;;;;;5011999;28;20556;-75
2022/12/20 07:05:51;;;;;;;3.00;2.90;;;0.60;99.90;;;;;;5006167;28;20036;-75
2022/12/20 07:08:18;;;;;;;3.65;3.55;;;0.60;99.90;;;;;;5018391;28;20024;-75
2022/12/20 07:10:43;;;;;;;4.93;4.70;;;0.60;99.90;;;;;;5031324;28;20026;-75
2022/12/20 07:13:09;;;;;;;2.88;2.78;;;0.60;99.90;;;;;;5011933;28;20036;-76
2022/12/20 07:15:34;;;;;;;5.05;4.85;;;0.60;99.90;;;;;;5000764;28;20125;-76
2022/12/20 07:18:00;;;;;;;3.50;3.40;;;0.60;99.90;;;;;;5024430;28;20112;-74
2022/12/20 07:20:25;;;;;;;3.00;2.90;;;0.50;99.90;;;;;;5012432;28;20061;-75
2022/12/20 07:22:51;;;;;;;4.05;3.95;;;0.50;99.90;;;;;;5001555;28;20418;-76
2022/12/20 07:25:16;;;;;;;3.55;3.30;;;0.50;99.90;;;;;;5021483;28;20476;-76
2022/12/20 07:27:45;;;;;;;3.00;2.90;;;0.60;99.90;;;;;;5015236;28;20411;-75
2022/12/20 07:30:10;;;;;;;6.40;6.10;;;0.50;99.90;;;;;;4998590;28;20133;-76
2022/12/20 07:32:36;;;;;;;2.83;2.72;;;0.60;99.90;;;;;;5028177;28;20526;-76
2022/12/20 07:35:01;;;;;;;3.55;3.45;;;0.70;99.90;;;;;;5008224;28;20036;-76
2022/12/20 07:37:30;;;;;;;3.70;3.60;;;0.70;99.90;;;;;;5014896;28;20079;-75
2022/12/20 07:39:56;;;;;;;3.97;3.88;;;0.70;99.90;;;;;;5008777;28;20071;-76
2022/12/20 07:42:22;;;;;;;2.90;2.80;;;0.60;99.90;;;;;;5023506;28;20037;-77
2022/12/20 07:44:47;;;;;;;9.18;8.77;;;0.60;99.90;;;;;;5033827;28;20037;-75
2022/12/20 07:47:13;;;;;;;3.83;3.72;;;0.60;99.90;;;;;;5004970;28;20025;-75
2022/12/20 07:49:38;;;;;;;8.52;7.50;;;0.60;99.90;;;;;;5033917;28;20030;-75
2022/12/20 07:52:06;;;;;;;3.10;3.00;;;0.70;99.90;;;;;;5023096;28;20107;-75
2022/12/20 07:54:41;;;;;;;3.47;3.38;;;0.70;99.90;;;;;;5002597;28;20026;-75
2022/12/20 07:57:14;;;;;;;6.27;5.97;;;0.70;99.90;;;;;;5006272;28;20037;-75
2022/12/20 07:59:43;;;;;;;3.67;3.58;;;0.70;99.90;;;;;;5031130;28;20488;-75
2022/12/20 08:02:18;;;;;;;3.15;3.05;;;0.70;99.90;;;;;;4999891;28;20121;-75
2022/12/20 08:04:44;;;;;;;3.65;3.55;;;0.70;99.90;;;;;;5001187;28;20026;-75
2022/12/20 08:07:10;;;;;;;2.97;2.88;;;0.70;99.90;;;;;;5018983;28;20030;-74
2022/12/20 08:09:40;;;;;;;3.75;3.65;;;0.80;99.90;;;;;;5023777;28;20072;-74
2022/12/20 08:12:09;;;;;;;3.13;3.03;;;0.80;99.90;;;;;;5014845;28;20368;-74
2022/12/20 08:14:35;;;;;;;3.17;3.08;;;0.80;99.90;;;;;;5014602;28;20415;-74
2022/12/20 08:17:00;;;;;;;3.47;3.38;;;0.90;99.90;;;;;;5024122;28;20479;-74
2022/12/20 08:19:26;;;;;;;3.42;3.33;;;0.90;99.90;;;;;;5021174;28;20036;-74
2022/12/20 08:21:51;;;;;;;6.28;5.97;;;0.90;99.90;;;;;;5022589;28;20038;-74
2022/12/20 08:24:17;;;;;;;3.40;3.30;;;1.00;99.90;;;;;;5014410;28;20079;-74
2022/12/20 08:26:43;;;;;;;3.22;3.13;;;1.00;99.90;;;;;;5026145;28;20021;-74
2022/12/20 08:29:09;;;;;;;2.90;2.80;;;1.10;99.90;;;;;;5020823;28;20021;-74
2022/12/20 08:31:39;;;;;;;3.47;3.38;;;1.10;99.90;;;;;;5016551;28;20021;-74
2022/12/20 08:34:05;;;;;;;3.35;3.25;;;1.10;99.90;;;;;;5016144;28;20057;-74
2022/12/20 08:36:31;;;;;;;3.17;3.08;;;1.10;99.90;;;;;;5022221;28;20026;-74
2022/12/20 08:38:56;;;;;;;6.63;6.22;;;1.10;99.90;;;;;;5032504;28;20028;-74
2022/12/20 08:41:22;;;;;;;5.07;4.88;;;1.10;99.90;;;;;;5034111;28;20061;-73
2022/12/20 08:43:48;;;;;;;4.60;4.40;;;1.20;99.90;;;;;;4997881;28;20069;-74
2022/12/20 08:46:14;;;;;;;4.53;4.43;;;1.20;99.90;;;;;;5014249;28;20444;-74
2022/12/20 08:48:39;;;;;;;3.83;3.72;;;1.20;99.90;;;;;;5018676;28;20073;-73
2022/12/20 08:51:07;;;;;;;3.55;3.45;;;1.30;99.90;;;;;;5033935;28;20025;-74
2022/12/20 08:53:34;;;;;;;3.83;3.72;;;1.30;99.90;;;;;;5002918;28;20434;-75
2022/12/20 08:56:09;;;;;;;3.25;3.15;;;1.30;99.90;;;;;;5004158;28;20376;-74
2022/12/20 08:58:35;;;;;;;3.75;3.65;;;1.40;99.90;;;;;;5013360;28;20117;-74
2022/12/20 09:01:03;;;;;;;11.43;7.78;;;1.40;99.90;;;;;;5027364;28;20041;-74
2022/12/20 09:03:30;;;;;;;3.75;3.65;;;1.40;99.90;;;;;;5015922;28;20121;-74
2022/12/20 09:05:56;;;;;;;3.45;3.35;;;1.40;99.90;;;;;;5019715;28;20068;-74
2022/12/20 09:08:21;;;;;;;3.70;3.60;;;1.40;99.90;;;;;;5013314;28;20030;-74
2022/12/20 09:10:47;;;;;;;3.17;3.08;;;1.40;99.90;;;;;;5013804;28;20480;-74
2022/12/20 09:13:12;;;;;;;3.88;3.78;;;1.40;99.90;;;;;;5021278;28;20037;-74
2022/12/20 09:15:38;;;;;;;3.22;3.13;;;1.40;99.90;;;;;;5015615;28;20521;-73
2022/12/20 09:18:04;;;;;;;3.90;3.80;;;1.40;99.90;;;;;;5025734;28;20030;-74
2022/12/20 09:20:31;;;;;;;3.60;3.50;;;1.40;99.90;;;;;;5014047;28;20049;-74
2022/12/20 09:22:58;;;;;;;9.20;8.68;;;1.50;99.90;;;;;;5015425;28;20033;-74
2022/12/20 09:25:24;;;;;;;3.28;3.17;;;1.50;99.90;;;;;;5033104;28;20045;-75
2022/12/20 09:27:49;;;;;;;3.40;3.30;;;1.50;99.90;;;;;;5032530;28;20480;-74
2022/12/20 09:30:15;;;;;;;3.72;3.63;;;1.50;99.90;;;;;;5033163;28;20021;-74
2022/12/20 09:32:41;;;;;;;5.00;4.85;;;1.50;99.90;;;;;;5032131;28;20029;-75
2022/12/20 09:35:06;;;;;;;9.02;8.38;;;1.60;99.90;;;;;;5001130;28;20039;-74
2022/12/20 09:37:32;;;;;;;3.65;3.55;;;1.50;99.90;;;;;;5007902;28;20026;-75
2022/12/20 09:39:58;;;;;;;8.13;7.50;;;1.50;99.90;;;;;;5007913;28;20033;-75
2022/12/20 09:42:27;;;;;;;3.63;3.53;;;1.60;99.90;;;;;;5020621;28;20091;-74
2022/12/20 09:45:08;;;;;;;3.47;3.38;;;1.70;99.90;;;;;;5019103;28;20383;-74
2022/12/20 09:47:35;;;;;;;4.07;3.97;;;1.70;99.90;;;;;;5004594;28;20036;-75
2022/12/20 09:50:03;;;;;;;5.53;5.35;;;1.70;99.90;;;;;;5020076;28;20025;-75
2022/12/20 09:52:46;;;;;;;4.15;4.05;;;1.70;99.90;;;;;;5023140;28;20061;-75
2022/12/20 09:55:33;;;;;;;4.55;4.45;;;1.80;99.90;;;;;;5032283;28;20686;-75
2022/12/20 09:58:09;;;;;;;4.28;4.18;;;1.90;99.90;;;;;;5019452;28;20026;-75
2022/12/20 10:00:35;;;;;;;;;;;1.90;99.90;;;;;;5005727;28;20037;-75
2022/12/20 10:03:04;;;;;;;4.43;4.32;;;2.00;99.90;;;;;;5008251;28;20355;-75
2022/12/20 10:05:38;;;;;;;3.45;3.35;;;2.00;99.90;;;;;;4995265;28;20030;-75
2022/12/20 10:08:41;;;;;;;4.88;4.68;;;2.00;99.90;;;;;;5017020;28;20083;-75
2022/12/20 10:11:18;;;;;;;4.63;4.53;;;2.00;99.90;;;;;;5001757;28;20033;-75
2022/12/20 10:14:02;;;;;;;4.13;4.03;;;2.00;99.90;;;;;;5020750;28;20125;-74
2022/12/20 10:16:34;;;;;;;4.10;4.00;;;2.00;99.90;;;;;;4990339;28;20022;-75
2022/12/20 10:19:13;;;;;;;9.25;8.88;;;2.10;99.90;;;;;;5019078;28;20026;-75
2022/12/20 10:21:44;;;;;;;4.22;4.13;;;1.90;99.90;;;;;;5022761;28;20483;-75
2022/12/20 10:24:23;;;;;;;4.72;4.63;;;2.00;99.90;;;;;;5013086;28;20021;-75
2022/12/20 10:26:50;;;;;;;4.93;4.72;;;2.10;99.90;;;;;;5019420;28;20396;-75
2022/12/20 10:29:17;;;;;;;5.07;4.88;;;2.10;99.90;;;;;;5025702;28;20014;-74
2022/12/20 10:31:42;;;;;;;4.13;4.03;;;2.10;99.90;;;;;;5007235;28;20112;-75
2022/12/20 10:34:08;;;;;;;5.53;5.32;;;2.20;99.90;;;;;;5001190;28;20196;-75
2022/12/20 10:36:35;;;;;;;5.68;5.43;;;2.10;99.90;;;;;;5002183;28;20022;-73
2022/12/20 10:39:06;;;;;;;5.32;5.13;;;2.10;99.90;;;;;;5019274;28;20021;-73
2022/12/20 10:41:47;;;;;;;4.20;4.10;;;2.10;99.90;;;;;;5030872;28;20080;-73
2022/12/20 10:44:26;;;;;;;5.50;5.30;;;2.20;99.90;;;;;;5012167;28;20109;-73
2022/12/20 10:46:57;;;;;;;5.53;5.32;;;2.30;99.90;;;;;;5011357;28;20026;-73
2022/12/20 10:49:33;;;;;;;5.07;4.88;;;2.40;99.90;;;;;;5011873;28;20026;-73
2022/12/20 10:52:08;;;;;;;8.70;8.30;;;2.40;99.90;;;;;;5011853;28;20037;-73
2022/12/20 10:54:45;;;;;;;4.75;4.63;;;2.50;99.90;;;;;;5025818;28;20034;-74
2022/12/20 10:57:16;;;;;;;5.05;4.85;;;2.40;99.90;;;;;;5022271;28;20107;-74
2022/12/20 10:59:49;;;;;;;5.38;5.18;;;2.40;99.90;;;;;;5025186;28;20087;-74
2022/12/20 11:02:25;;;;;;;4.35;4.25;;;2.30;99.90;;;;;;5011757;28;20029;-75
2022/12/20 11:05:23;;;;;;;4.90;4.70;;;2.40;99.90;;;;;;5011156;28;20026;-73
2022/12/20 11:07:56;;;;;;;5.28;5.07;;;2.30;99.90;;;;;;5006361;28;20033;-76
2022/12/20 11:10:27;;;;;;;5.20;5.00;;;2.30;99.90;;;;;;5012090;28;20050;-75
2022/12/20 11:12:58;;;;;;;5.07;4.88;;;2.40;99.90;;;;;;5016625;28;20368;-75
2022/12/20 11:15:25;;;;;;;5.60;5.40;;;2.40;99.90;;;;;;5020142;28;20373;-74
2022/12/20 11:17:59;;;;;;;5.05;4.85;;;2.40;99.90;;;;;;5012422;28;20044;-75
2022/12/20 11:20:49;;;;;;;6.65;6.45;;;2.40;99.90;;;;;;5001189;28;20396;-75
2022/12/20 11:23:37;;;;;;;5.57;5.38;;;2.50;99.90;;;;;;5011485;28;20040;-75
2022/12/20 11:26:32;;;;;;;4.82;4.68;;;2.50;99.90;;;;;;5012184;28;20104;-75
2022/12/20 11:29:36;;;;;;;6.03;5.82;;;2.50;99.90;;;;;;5000504;28;20443;-74
2022/12/20 11:32:23;;;;;;;35.45;8.35;;;2.50;99.90;;;;;;5016384;28;20026;-75
2022/12/20 11:35:49;;;;;;;6.70;6.50;;;2.50;99.90;;;;;;5002203;28;20033;-74
2022/12/20 11:38:23;;;;;;;10.73;10.15;;;2.50;99.90;;;;;;4912896;29;20083;-74
2022/12/20 11:41:16;;;;;;;5.95;5.75;;;2.50;99.90;;;;;;4995254;28;20041;-74
2022/12/20 11:43:57;;;;;;;5.85;5.65;;;2.60;99.90;;;;;;4996940;28;20026;-75
2022/12/20 11:46:50;;;;;;;7.63;7.32;;;2.70;99.90;;;;;;5000767;28;20057;-75
2022/12/20 11:49:43;;;;;;;6.13;5.93;;;2.80;99.90;;;;;;4994558;28;20051;-75
2022/12/20 11:52:23;;;;;;;7.30;7.00;;;2.90;99.90;;;;;;5006111;28;20033;-74
2022/12/20 11:55:04;;;;;;;5.53;5.32;;;2.90;99.90;;;;;;5015761;28;20022;-75
2022/12/20 11:57:43;;;;;;;5.70;5.50;;;3.00;99.90;;;;;;5022185;28;20113;-74
2022/12/20 12:00:16;;;;;;;6.15;5.93;;;3.00;99.90;;;;;;5012329;28;20026;-74
2022/12/20 12:02:50;;;;;;;6.95;6.65;;;3.00;99.90;;;;;;5011383;28;20041;-74
2022/12/20 12:05:39;;;;;;;5.43;5.22;;;3.00;99.90;;;;;;5011402;28;20026;-72
2022/12/20 12:08:12;;;;;;;5.80;5.60;;;3.00;99.90;;;;;;5011374;28;20018;-73
2022/12/20 12:10:44;;;;;;;5.75;5.55;;;3.00;99.90;;;;;;4995025;28;20458;-74
2022/12/20 12:13:29;;;;;;;5.95;5.75;;;3.00;99.90;;;;;;5013064;28;20503;-75
2022/12/20 12:16:08;;;;;;;5.32;5.13;;;2.90;99.90;;;;;;5014455;28;20045;-75
2022/12/20 12:18:35;;;;;;;5.32;5.13;;;2.90;99.90;;;;;;5021665;28;20030;-75
2022/12/20 12:21:04;;;;;;;5.55;5.35;;;2.80;99.90;;;;;;5012926;28;20054;-75
2022/12/20 12:24:07;;;;;;;5.78;5.57;;;2.80;99.90;;;;;;4995122;28;20022;-74
2022/12/20 12:26:39;;;;;;;5.90;5.70;;;2.90;99.90;;;;;;4996593;28;20518;-74
2022/12/20 12:29:08;;;;;;;5.35;5.15;;;3.00;99.90;;;;;;5000912;28;20029;-74
2022/12/20 12:31:43;;;;;;;5.47;5.28;;;3.00;99.90;;;;;;5025249;28;20034;-74
2022/12/20 12:34:16;;;;;;;6.25;6.05;;;3.10;99.90;;;;;;5032263;28;20021;-75
2022/12/20 12:36:54;;;;;;;6.35;6.15;;;3.00;99.90;;;;;;5027245;28;20028;-74
2022/12/20 12:39:52;;;;;;;6.22;6.03;;;2.90;99.90;;;;;;5033396;28;20022;-74
2022/12/20 12:42:57;;;;;;;6.57;6.38;;;2.90;99.90;;;;;;5033301;28;20026;-75
2022/12/20 12:45:48;;;;;;;5.50;5.30;;;2.90;99.90;;;;;;5020787;28;20026;-73
2022/12/20 12:48:23;;;;;;;5.28;5.07;;;3.00;99.90;;;;;;5020132;28;20033;-75
2022/12/20 12:50:51;;;;;;;5.50;5.30;;;2.80;99.90;;;;;;5000720;28;20022;-74
2022/12/20 12:53:22;;;;;;;5.85;5.65;;;2.70;99.90;;;;;;5015252;28;20026;-73
2022/12/20 12:55:52;;;;;;;6.15;5.95;;;2.60;99.90;;;;;;5014482;28;20018;-74
2022/12/20 12:58:21;;;;;;;5.15;4.95;;;2.60;99.90;;;;;;5028051;28;20431;-74
2022/12/20 13:00:52;;;;;;;5.70;5.50;;;2.60;99.90;;;;;;5007925;28;20083;-74
2022/12/20 13:03:41;;;;;;;4.60;4.50;;;2.60;99.90;;;;;;5028937;28;20061;-74
2022/12/20 13:06:22;;;;;;;9.02;8.63;;;2.60;99.90;;;;;;5010735;28;20496;-75
2022/12/20 13:08:57;;;;;;;5.88;5.68;;;2.60;99.90;;;;;;4997678;28;20095;-75
2022/12/20 13:11:29;;;;;;;5.43;5.22;;;2.50;99.90;;;;;;4997281;28;20100;-75
2022/12/20 13:14:16;;;;;;;5.95;5.75;;;2.50;99.90;;;;;;4999449;28;20029;-73
2022/12/20 13:16:45;;;;;;;5.88;5.68;;;2.60;99.90;;;;;;5011445;28;20025;-74
2022/12/20 13:19:17;;;;;;;5.43;5.22;;;2.60;99.90;;;;;;5018182;28;20073;-73
2022/12/20 13:21:47;;;;;;;7.90;7.47;;;2.50;99.90;;;;;;5014813;28;20029;-74